createdAt,value
2022-11-04T00:00:10.027Z,2.55
2022-11-04T00:02:36.451Z,3.45
2022-11-04T00:05:02.919Z,3.28
2022-11-04T00:07:47.635Z,2.65
2022-11-04T00:10:17.012Z,3.45
2022-11-04T00:12:43.285Z,4.20
2022-11-04T00:15:28.304Z,4.03
2022-11-04T00:17:54.628Z,4.30
2022-11-04T00:20:39.517Z,4.55
2022-11-04T00:23:24.444Z,3.95
2022-11-04T00:26:09.214Z,2.80
2022-11-04T00:28:44.307Z,3.75
2022-11-04T00:31:29.782Z,2.47
2022-11-04T00:33:58.343Z,4.20
2022-11-04T00:36:25.267Z,3.15
2022-11-04T00:38:51.768Z,2.55
2022-11-04T00:41:27.920Z,2.50
2022-11-04T00:43:57.179Z,2.67
2022-11-04T00:46:23.839Z,3.13
2022-11-04T00:48:50.387Z,1.60
2022-11-04T00:51:16.820Z,2.60
2022-11-04T00:53:43.140Z,2.45
2022-11-04T00:56:09.594Z,1.88
2022-11-04T00:58:36.103Z,1.85
2022-11-04T01:01:11.585Z,1.63
2022-11-04T01:03:38.487Z,1.67
2022-11-04T01:06:05.562Z,1.55
2022-11-04T01:08:32.044Z,1.85
2022-11-04T01:11:02.104Z,1.20
2022-11-04T01:13:28.605Z,0.50
2022-11-04T01:15:58.001Z,1.15
2022-11-04T01:18:24.294Z,0.88
2022-11-04T01:20:50.650Z,1.00
2022-11-04T01:23:17.078Z,1.40
2022-11-04T01:25:43.550Z,1.00
2022-11-04T01:28:10.600Z,1.30
2022-11-04T01:30:40.246Z,1.80
2022-11-04T01:33:06.556Z,1.38
2022-11-04T01:35:32.912Z,1.23
2022-11-04T01:37:59.476Z,1.70
2022-11-04T01:40:25.966Z,1.20
2022-11-04T01:42:52.385Z,1.70
2022-11-04T01:45:20.521Z,1.17
2022-11-04T01:47:59.607Z,1.40
2022-11-04T01:50:30.067Z,1.10
2022-11-04T01:53:16.145Z,0.82
2022-11-04T01:55:52.580Z,0.90
2022-11-04T01:58:23.218Z,1.35
2022-11-04T02:00:49.597Z,1.35
2022-11-04T02:03:15.823Z,1.80
2022-11-04T02:05:43.748Z,1.90
2022-11-04T02:08:12.330Z,2.13
2022-11-04T02:10:41.667Z,2.05
2022-11-04T02:13:08.374Z,2.10
2022-11-04T02:16:08.560Z,2.72
2022-11-04T02:18:58.113Z,2.88
2022-11-04T02:21:44.466Z,3.67
2022-11-04T02:24:19.820Z,4.70
2022-11-04T02:27:15.467Z,4.18
2022-11-04T02:30:00.045Z,4.82
2022-11-04T02:32:42.577Z,3.33
2022-11-04T02:35:21.133Z,5.40
2022-11-04T02:38:13.294Z,5.55
2022-11-04T02:40:55.658Z,3.97
2022-11-04T02:43:40.754Z,4.85
2022-11-04T02:46:07.042Z,6.13
2022-11-04T02:48:45.696Z,5.82
2022-11-04T02:51:22.376Z,6.32
2022-11-04T02:54:00.399Z,5.60
2022-11-04T02:56:28.875Z,7.20
2022-11-04T02:59:19.527Z,6.50
2022-11-04T03:01:48.116Z,7.07
2022-11-04T03:04:18.836Z,4.63
2022-11-04T03:06:48.938Z,6.60
2022-11-04T03:09:18.128Z,4.45
2022-11-04T03:11:48.068Z,6.28
2022-11-04T03:14:20.387Z,6.53
2022-11-04T03:16:48.160Z,5.28
2022-11-04T03:19:34.308Z,4.38
2022-11-04T03:22:05.027Z,4.43
2022-11-04T03:24:32.084Z,4.65
2022-11-04T03:27:02.879Z,4.63
2022-11-04T03:29:37.265Z,4.55
2022-11-04T03:32:40.649Z,4.15
2022-11-04T03:35:08.475Z,3.85
2022-11-04T03:37:35.010Z,4.38
2022-11-04T03:40:02.085Z,4.53
2022-11-04T03:42:30.595Z,3.28
2022-11-04T03:44:57.642Z,4.10
2022-11-04T03:47:26.795Z,4.20
2022-11-04T03:50:07.446Z,4.40
2022-11-04T03:52:34.367Z,3.67
2022-11-04T03:55:00.723Z,4.05
2022-11-04T03:57:36.479Z,4.00
2022-11-04T04:00:15.354Z,3.53
2022-11-04T04:02:56.839Z,3.13
2022-11-04T04:05:41.004Z,4.00
2022-11-04T04:08:28.653Z,3.88
2022-11-04T04:11:13.212Z,3.95
2022-11-04T04:13:56.536Z,3.60
2022-11-04T04:16:38.204Z,3.67
2022-11-04T04:19:11.612Z,3.63
2022-11-04T04:21:46.807Z,3.83
2022-11-04T04:24:35.449Z,3.35
2022-11-04T04:27:21.233Z,3.88
2022-11-04T04:29:51.080Z,4.05
2022-11-04T04:32:20.268Z,3.53
2022-11-04T04:34:46.589Z,3.35
2022-11-04T04:37:24.156Z,3.50
2022-11-04T04:40:31.519Z,4.05
2022-11-04T04:43:16.292Z,3.42
2022-11-04T04:45:48.257Z,3.92
2022-11-04T04:48:14.670Z,3.58
2022-11-04T04:50:48.570Z,3.80
2022-11-04T04:53:15.287Z,3.90
2022-11-04T04:55:42.045Z,3.63
2022-11-04T04:58:08.911Z,3.42
2022-11-04T05:00:35.344Z,3.63
2022-11-04T05:03:01.674Z,3.63
2022-11-04T05:05:28.045Z,4.00
2022-11-04T05:07:54.352Z,3.42
2022-11-04T05:10:20.860Z,3.90
2022-11-04T05:13:05.960Z,4.15
2022-11-04T05:15:32.612Z,3.55
2022-11-04T05:18:00.999Z,3.78
2022-11-04T05:20:28.936Z,3.17
2022-11-04T05:22:55.261Z,2.70
2022-11-04T05:25:21.675Z,3.17
2022-11-04T05:27:47.993Z,3.05
2022-11-04T05:30:14.338Z,2.90
2022-11-04T05:32:40.690Z,2.85
2022-11-04T05:35:07.416Z,2.90
2022-11-04T05:37:33.746Z,2.53
2022-11-04T05:40:00.110Z,2.50
2022-11-04T05:42:26.435Z,2.95
2022-11-04T05:44:52.781Z,2.72
2022-11-04T05:47:19.069Z,3.17
2022-11-04T05:49:45.371Z,2.70
2022-11-04T05:52:11.687Z,3.15
2022-11-04T05:54:39.180Z,2.90
2022-11-04T05:57:05.521Z,2.83
2022-11-04T05:59:31.943Z,2.70
2022-11-04T06:01:58.397Z,3.00
2022-11-04T06:04:24.845Z,2.63
2022-11-04T06:06:51.187Z,2.45
2022-11-04T06:09:17.553Z,2.70
2022-11-04T06:11:44.001Z,2.60
2022-11-04T06:14:14.672Z,2.63
2022-11-04T06:16:43.922Z,2.67
2022-11-04T06:19:13.431Z,2.55
2022-11-04T06:21:42.338Z,2.67
2022-11-04T06:24:08.658Z,2.40
2022-11-04T06:26:35.158Z,2.75
2022-11-04T06:29:01.553Z,2.58
2022-11-04T06:31:27.933Z,3.00
2022-11-04T06:33:54.283Z,2.80
2022-11-04T06:36:20.626Z,2.67
2022-11-04T06:38:46.972Z,3.08
2022-11-04T06:41:16.218Z,3.25
2022-11-04T06:43:43.003Z,3.05
2022-11-04T06:46:27.920Z,2.60
2022-11-04T06:48:56.159Z,2.78
2022-11-04T06:51:23.180Z,2.55
2022-11-04T06:53:49.528Z,2.63
2022-11-04T06:56:15.850Z,2.80
2022-11-04T06:58:42.247Z,2.50
2022-11-04T07:01:14.643Z,3.05
2022-11-04T07:03:44.082Z,3.08
2022-11-04T07:06:11.468Z,3.30
2022-11-04T07:08:37.814Z,2.80
2022-11-04T07:11:04.170Z,2.75
2022-11-04T07:13:30.451Z,2.33
2022-11-04T07:15:57.139Z,2.45
2022-11-04T07:18:23.590Z,2.53
2022-11-04T07:20:49.977Z,2.33
2022-11-04T07:23:16.325Z,4.10
2022-11-04T07:25:42.949Z,3.00
2022-11-04T07:28:09.860Z,2.67
2022-11-04T07:30:36.347Z,2.22
2022-11-04T07:33:02.845Z,2.60
2022-11-04T07:35:29.178Z,2.53
2022-11-04T07:37:55.605Z,3.15
2022-11-04T07:40:21.912Z,2.35
2022-11-04T07:42:48.678Z,2.28
2022-11-04T07:45:15.101Z,3.03
2022-11-04T07:47:41.452Z,1.95
2022-11-04T07:50:10.757Z,2.22
2022-11-04T07:52:38.011Z,2.50
2022-11-04T07:55:04.735Z,2.50
2022-11-04T07:57:31.079Z,2.40
2022-11-04T07:59:57.518Z,2.40
2022-11-04T08:02:27.579Z,2.42
2022-11-04T08:07:21.430Z,2.25
2022-11-04T08:09:47.748Z,3.00
2022-11-04T08:12:14.070Z,2.10
2022-11-04T08:14:40.497Z,2.88
2022-11-04T08:17:06.923Z,2.20
2022-11-04T08:19:33.322Z,2.50
2022-11-04T08:21:59.662Z,2.40
2022-11-04T08:24:25.956Z,2.92
2022-11-04T08:26:52.521Z,2.22
2022-11-04T08:29:19.197Z,2.50
2022-11-04T08:31:45.623Z,2.65
2022-11-04T08:34:12.109Z,2.78
2022-11-04T08:36:40.784Z,2.53
2022-11-04T08:39:10.863Z,1.90
2022-11-04T08:41:40.934Z,2.72
2022-11-04T08:44:07.836Z,2.10
2022-11-04T08:46:38.229Z,2.20
2022-11-04T08:49:09.695Z,2.70
2022-11-04T08:51:40.938Z,2.65
2022-11-04T08:54:07.725Z,2.58
2022-11-04T08:56:37.178Z,2.42
2022-11-04T08:59:04.291Z,2.40
2022-11-04T09:01:35.829Z,2.35
2022-11-04T09:04:03.339Z,2.22
2022-11-04T09:06:33.280Z,2.47
2022-11-04T09:09:03.861Z,3.05
2022-11-04T09:11:36.684Z,3.28
2022-11-04T09:14:03.689Z,3.40
2022-11-04T09:16:32.440Z,2.75
2022-11-04T09:18:59.474Z,2.72
2022-11-04T09:21:27.305Z,3.50
2022-11-04T09:23:54.377Z,2.78
2022-11-04T09:26:22.286Z,3.03
2022-11-04T09:28:54.026Z,2.67
2022-11-04T09:31:21.275Z,2.38
2022-11-04T09:33:47.849Z,2.40
2022-11-04T09:36:14.421Z,2.95
2022-11-04T09:38:42.171Z,2.75
2022-11-04T09:41:31.507Z,2.10
2022-11-04T09:44:13.021Z,2.47
2022-11-04T09:46:39.950Z,1.98
2022-11-04T09:49:10.486Z,3.20
2022-11-04T09:51:53.888Z,2.50
2022-11-04T09:54:29.150Z,2.13
2022-11-04T09:56:59.374Z,2.22
2022-11-04T09:59:28.909Z,2.75
2022-11-04T10:02:02.468Z,2.90
2022-11-04T10:04:34.793Z,3.03
2022-11-04T10:07:11.172Z,3.25
2022-11-04T10:09:50.319Z,2.95
2022-11-04T10:12:31.634Z,2.80
2022-11-04T10:17:38.731Z,3.75
2022-11-04T10:20:15.947Z,3.72
2022-11-04T10:23:06.975Z,3.90
2022-11-04T10:25:49.071Z,4.50
2022-11-04T10:28:19.333Z,3.83
2022-11-04T10:30:51.670Z,3.50
2022-11-04T10:33:28.967Z,3.53
2022-11-04T10:36:02.666Z,3.78
2022-11-04T10:38:44.856Z,3.90
2022-11-04T10:41:20.030Z,3.58
2022-11-04T10:43:47.710Z,4.82
2022-11-04T10:46:45.683Z,4.38
2022-11-04T10:49:36.670Z,4.60
2022-11-04T10:52:05.000Z,4.00
2022-11-04T10:54:39.750Z,4.43
2022-11-04T10:57:06.161Z,5.18
2022-11-04T10:59:55.181Z,4.32
2022-11-04T11:02:36.773Z,4.97
2022-11-04T11:05:18.377Z,4.68
2022-11-04T11:07:46.809Z,5.43
2022-11-04T11:10:26.429Z,5.25
2022-11-04T11:13:06.896Z,5.78
2022-11-04T11:15:38.397Z,4.10
2022-11-04T11:18:07.681Z,4.50
2022-11-04T11:20:37.666Z,4.05
2022-11-04T11:23:10.137Z,4.55
2022-11-04T11:25:45.009Z,4.50
2022-11-04T11:28:21.268Z,4.47
2022-11-04T11:30:47.550Z,4.55
2022-11-04T11:33:23.454Z,3.90
2022-11-04T11:36:14.277Z,4.55
2022-11-04T11:38:58.037Z,4.80
2022-11-04T11:41:31.396Z,4.13
2022-11-04T11:44:06.698Z,4.53
2022-11-04T11:46:35.421Z,5.05
2022-11-04T11:49:04.808Z,4.28
2022-11-04T11:51:35.314Z,4.70
2022-11-04T11:54:22.550Z,4.68
2022-11-04T11:57:12.601Z,5.00
2022-11-04T12:02:47.763Z,4.78
2022-11-04T12:11:34.862Z,4.87
2022-11-04T12:14:06.322Z,4.38
2022-11-04T12:17:03.686Z,5.35
2022-11-04T12:20:03.679Z,6.00
2022-11-04T12:22:36.084Z,5.25
2022-11-04T12:25:25.239Z,5.07
2022-11-04T12:28:01.022Z,5.10
2022-11-04T12:30:38.162Z,5.47
2022-11-04T12:33:24.386Z,5.78
2022-11-04T12:35:57.277Z,5.60
2022-11-04T12:38:32.111Z,5.75
2022-11-04T12:41:58.761Z,5.95
2022-11-04T12:44:21.711Z,5.43
2022-11-04T12:47:03.971Z,5.30
2022-11-04T12:49:49.012Z,5.40
2022-11-04T12:52:23.506Z,5.32
2022-11-04T12:55:21.961Z,4.97
2022-11-04T12:58:06.807Z,6.05
2022-11-04T13:00:36.039Z,5.72
2022-11-04T13:03:14.966Z,5.80
2022-11-04T13:05:53.029Z,5.93
2022-11-04T13:08:34.315Z,6.10
2022-11-04T13:14:10.813Z,6.15
2022-11-04T13:16:40.715Z,5.30
2022-11-04T13:19:25.571Z,6.25
2022-11-04T13:21:54.155Z,5.57
2022-11-04T13:24:30.192Z,5.35
2022-11-04T13:27:01.610Z,5.95
2022-11-04T13:29:29.339Z,5.43
2022-11-04T13:32:04.826Z,6.10
2022-11-04T13:34:39.262Z,5.80
2022-11-04T13:37:34.908Z,6.68
2022-11-04T13:40:13.665Z,5.25
2022-11-04T13:43:23.190Z,5.32
2022-11-04T13:45:53.598Z,5.95
2022-11-04T13:48:24.291Z,5.67
2022-11-04T13:50:59.146Z,4.97
2022-11-04T13:53:42.700Z,6.63
2022-11-04T13:56:32.326Z,5.32
2022-11-04T13:59:02.007Z,4.50
2022-11-04T14:01:33.481Z,4.93
2022-11-04T14:04:19.282Z,4.90
2022-11-04T14:07:03.972Z,5.60
2022-11-04T14:09:33.860Z,5.25
2022-11-04T14:12:13.420Z,4.55
2022-11-04T14:14:49.883Z,4.40
2022-11-04T14:17:34.615Z,4.95
2022-11-04T14:20:24.047Z,4.50
2022-11-04T14:22:54.614Z,4.63
2022-11-04T14:25:23.556Z,5.50
2022-11-04T14:27:52.743Z,4.15
2022-11-04T14:30:31.778Z,3.55
2022-11-04T14:33:02.394Z,4.30
2022-11-04T14:35:30.361Z,4.22
2022-11-04T14:38:05.461Z,4.47
2022-11-04T14:40:50.658Z,4.85
2022-11-04T14:43:40.542Z,4.38
2022-11-04T14:46:07.450Z,5.00
2022-11-04T14:48:34.626Z,5.25
2022-11-04T14:51:01.073Z,4.93
2022-11-04T14:53:37.661Z,5.22
2022-11-04T14:56:22.109Z,5.95
2022-11-04T14:58:58.302Z,5.95
2022-11-04T15:01:32.936Z,5.88
2022-11-04T15:04:29.194Z,6.47
2022-11-04T15:07:03.421Z,6.32
2022-11-04T15:09:41.301Z,5.95
2022-11-04T15:12:29.064Z,5.95
2022-11-04T15:14:56.448Z,5.50
2022-11-04T15:17:26.601Z,6.40
2022-11-04T15:19:55.972Z,6.43
2022-11-04T15:22:22.989Z,6.38
2022-11-04T15:24:53.118Z,6.50
2022-11-04T15:27:27.474Z,6.45
2022-11-04T15:29:58.871Z,6.75
2022-11-04T15:32:26.555Z,6.75
2022-11-04T15:34:54.529Z,6.57
2022-11-04T15:37:23.968Z,6.53
2022-11-04T15:39:53.001Z,7.50
2022-11-04T15:42:39.733Z,6.38
2022-11-04T15:45:18.235Z,6.45
2022-11-04T15:47:44.704Z,6.70
2022-11-04T15:50:24.720Z,6.82
2022-11-04T15:52:55.488Z,6.95
2022-11-04T15:55:26.613Z,6.50
2022-11-04T15:57:55.207Z,6.00
2022-11-04T16:00:24.834Z,4.15
2022-11-04T16:02:55.011Z,3.20
2022-11-04T16:05:21.420Z,1.98
2022-11-04T16:07:52.917Z,0.70
2022-11-04T16:10:25.212Z,0.70
2022-11-04T16:12:58.901Z,0.50
2022-11-04T16:15:43.395Z,0.50
2022-11-04T16:19:03.937Z,0.50
2022-11-04T16:21:33.738Z,0.50
2022-11-04T16:24:04.343Z,0.50
2022-11-04T16:26:37.528Z,0.65
2022-11-04T16:29:09.275Z,0.80
2022-11-04T16:31:37.007Z,0.70
2022-11-04T16:34:05.878Z,0.85
2022-11-04T16:36:35.537Z,1.13
2022-11-04T16:39:04.796Z,0.93
2022-11-04T16:41:38.440Z,0.80
2022-11-04T16:44:11.165Z,1.08
2022-11-04T16:46:40.564Z,2.53
2022-11-04T16:49:06.858Z,0.80
2022-11-04T16:51:34.361Z,0.70
2022-11-04T16:54:00.824Z,1.00
2022-11-04T16:56:27.229Z,0.70
2022-11-04T16:58:53.537Z,0.52
2022-11-04T17:01:21.105Z,0.60
2022-11-04T17:03:47.942Z,0.80
2022-11-04T17:06:16.258Z,1.23
2022-11-04T17:08:43.341Z,0.80
2022-11-04T17:11:11.190Z,0.75
2022-11-04T17:13:38.280Z,0.80
2022-11-04T17:16:12.859Z,0.75
2022-11-04T17:18:39.295Z,0.70
2022-11-04T17:21:07.939Z,0.82
2022-11-04T17:23:34.693Z,0.70
2022-11-04T17:26:02.039Z,0.47
2022-11-04T17:28:28.670Z,0.60
2022-11-04T17:30:55.063Z,1.00
2022-11-04T17:33:24.519Z,0.80
2022-11-04T17:35:51.724Z,0.43
2022-11-04T17:38:19.389Z,0.60
2022-11-04T17:41:04.692Z,0.70
2022-11-04T17:43:50.038Z,0.70
2022-11-04T17:46:35.881Z,0.70
2022-11-04T17:49:16.786Z,0.70
2022-11-04T17:51:49.244Z,1.00
2022-11-04T17:54:16.336Z,1.00
2022-11-04T17:56:43.422Z,1.27
2022-11-04T17:59:12.206Z,1.17
2022-11-04T18:01:39.947Z,1.33
2022-11-04T18:04:13.378Z,1.08
2022-11-04T18:06:39.835Z,0.95
2022-11-04T18:09:06.684Z,1.52
2022-11-04T18:11:51.447Z,2.17
2022-11-04T18:14:20.763Z,1.63
2022-11-04T18:16:49.563Z,1.85
2022-11-04T18:19:18.365Z,2.05
2022-11-04T18:21:45.207Z,1.95
2022-11-04T18:24:12.600Z,2.30
2022-11-04T18:26:39.713Z,2.03
2022-11-04T18:29:06.743Z,2.25
2022-11-04T18:31:36.113Z,2.22
2022-11-04T18:34:06.383Z,2.47
2022-11-04T18:36:33.824Z,2.10
2022-11-04T18:39:01.647Z,2.25
2022-11-04T18:41:28.269Z,2.55
2022-11-04T18:43:54.649Z,3.00
2022-11-04T18:46:24.897Z,2.65
2022-11-04T18:48:51.770Z,3.57
2022-11-04T18:51:21.844Z,3.75
2022-11-04T18:53:49.507Z,3.45
2022-11-04T18:56:19.747Z,3.05
2022-11-04T18:58:47.260Z,4.05
2022-11-04T19:01:19.453Z,4.15
2022-11-04T19:03:46.924Z,3.58
2022-11-04T19:06:18.069Z,3.70
2022-11-04T19:11:20.154Z,3.40
2022-11-04T19:13:55.076Z,3.25
2022-11-04T19:16:22.281Z,3.00
2022-11-04T19:18:49.599Z,3.85
2022-11-04T19:21:18.819Z,3.20
2022-11-04T19:23:45.581Z,3.50
2022-11-04T19:26:17.986Z,2.88
2022-11-04T19:28:48.524Z,2.80
2022-11-04T19:31:27.862Z,3.08
2022-11-04T19:33:57.147Z,2.63
2022-11-04T19:36:24.746Z,2.88
2022-11-04T19:38:55.465Z,2.50
2022-11-04T19:41:41.388Z,2.53
2022-11-04T19:44:13.304Z,2.75
2022-11-04T19:46:40.251Z,2.47
2022-11-04T19:49:10.965Z,2.40
2022-11-04T19:51:37.376Z,3.17
2022-11-04T19:54:04.910Z,3.17
2022-11-04T19:56:33.625Z,3.30
2022-11-04T19:59:05.825Z,3.67
2022-11-04T20:01:34.327Z,3.70
2022-11-04T20:04:02.561Z,2.92
2022-11-04T20:06:29.522Z,3.25
2022-11-04T20:08:58.114Z,3.25
2022-11-04T20:11:24.714Z,2.53
2022-11-04T20:13:51.812Z,3.03
2022-11-04T20:16:30.690Z,3.13
2022-11-04T20:19:01.103Z,2.55
2022-11-04T20:21:32.424Z,3.30
2022-11-04T20:24:02.388Z,3.10
2022-11-04T20:26:32.448Z,3.05
2022-11-04T20:28:59.137Z,2.75
2022-11-04T20:31:31.333Z,2.83
2022-11-04T20:33:58.360Z,2.60
2022-11-04T20:36:28.561Z,3.85
2022-11-04T20:38:56.727Z,3.83
2022-11-04T20:41:23.229Z,2.85
2022-11-04T20:43:49.609Z,3.40
2022-11-04T20:46:21.800Z,3.25
2022-11-04T20:48:53.135Z,4.65
2022-11-04T20:51:22.277Z,4.93
2022-11-04T20:53:49.460Z,3.47
2022-11-04T20:56:18.044Z,3.50
2022-11-04T20:58:46.985Z,2.92
2022-11-04T21:01:21.346Z,3.20
2022-11-04T21:03:47.808Z,3.40
2022-11-04T21:06:14.503Z,3.42
2022-11-04T21:08:40.852Z,3.92
2022-11-04T21:11:07.725Z,3.50
2022-11-04T21:13:34.577Z,3.10
2022-11-04T21:16:01.910Z,3.67
2022-11-04T21:18:29.594Z,3.10
2022-11-04T21:20:57.428Z,3.38
2022-11-04T21:23:24.862Z,3.05
2022-11-04T21:25:54.976Z,3.05
2022-11-04T21:28:21.295Z,4.68
2022-11-04T21:30:49.882Z,3.65
2022-11-04T21:33:16.574Z,3.80
2022-11-04T21:35:43.650Z,4.22
2022-11-04T21:38:13.854Z,3.60
2022-11-04T21:40:40.908Z,4.30
2022-11-04T21:43:07.391Z,4.25
2022-11-04T21:45:34.647Z,3.67
2022-11-04T21:48:01.566Z,3.42
2022-11-04T21:50:28.093Z,3.22
2022-11-04T21:52:54.500Z,3.58
2022-11-04T21:55:20.931Z,3.53
2022-11-04T21:57:47.266Z,3.72
2022-11-04T22:00:16.733Z,3.90
2022-11-04T22:02:43.632Z,3.78
2022-11-04T22:05:11.473Z,4.68
2022-11-04T22:07:58.169Z,3.83
2022-11-04T22:10:26.266Z,4.10
2022-11-04T22:12:53.163Z,3.80
2022-11-04T22:15:39.535Z,3.60
2022-11-04T22:18:07.040Z,3.95
2022-11-04T22:20:36.259Z,3.97
2022-11-04T22:23:03.190Z,4.93
2022-11-04T22:25:30.732Z,4.22
2022-11-04T22:27:57.025Z,4.40
2022-11-04T22:30:23.434Z,4.57
2022-11-04T22:32:49.904Z,4.55
2022-11-04T22:35:16.899Z,4.35
2022-11-04T22:37:43.220Z,3.78
2022-11-04T22:40:09.999Z,4.55
2022-11-04T22:42:36.356Z,4.30
2022-11-04T22:45:02.929Z,4.22
2022-11-04T22:47:29.324Z,4.18
2022-11-04T22:49:55.629Z,4.70
2022-11-04T22:52:21.988Z,5.25
2022-11-04T22:54:48.438Z,4.68
2022-11-04T22:57:14.781Z,5.13
2022-11-04T22:59:41.112Z,4.72
2022-11-04T23:02:07.543Z,4.70
2022-11-04T23:04:34.127Z,5.22
2022-11-04T23:07:00.495Z,4.93
2022-11-04T23:09:26.807Z,5.38
2022-11-04T23:12:11.988Z,5.05
2022-11-04T23:14:40.932Z,5.13
2022-11-04T23:17:35.204Z,5.10
2022-11-04T23:20:02.474Z,4.85
2022-11-04T23:22:47.587Z,5.00
2022-11-04T23:25:14.184Z,4.60
2022-11-04T23:27:59.170Z,4.47
2022-11-04T23:30:27.735Z,5.45
2022-11-04T23:33:06.325Z,5.53
2022-11-04T23:35:54.670Z,5.13
2022-11-04T23:38:21.413Z,5.22
2022-11-04T23:41:08.831Z,6.50
2022-11-04T23:43:36.021Z,5.22
2022-11-04T23:46:21.054Z,4.70
2022-11-04T23:49:05.765Z,5.60
2022-11-04T23:51:50.581Z,5.35
2022-11-04T23:54:35.454Z,5.45
2022-11-04T23:57:20.644Z,6.07
